Do you understand this?

Data at: 1834 UTC 13 Feb 2017
KJYO 131815Z AUTO 35015G31KT 10SM CLR 06/M05 A3005 RMK AO2

If you understand this, then make sure todays winds are within your personal limits.

If you don’t understand this, give us a call at 800.940.2FLY and one of our flight instructors can assist you in learning all about weather METARs, and how to use aviation to create memorable and fulfilling personal and professional experiences as a private pilot.

0 replies

Leave a Reply

Want to join the discussion?
Feel free to contribute!

Leave a Reply

Your email address will not be published. Required fields are marked *